createdAt,value
2023-03-12T00:00:51.219Z,0.00
2023-03-12T00:01:51.210Z,0.00
2023-03-12T00:02:51.260Z,0.00
2023-03-12T00:03:51.263Z,0.00
2023-03-12T00:04:51.162Z,0.00
2023-03-12T00:05:51.167Z,0.00
2023-03-12T00:06:51.139Z,0.00
2023-03-12T00:07:51.147Z,0.00
2023-03-12T00:08:51.136Z,0.00
2023-03-12T00:09:51.179Z,0.00
2023-03-12T00:10:51.099Z,0.00
2023-03-12T00:11:51.109Z,0.00
2023-03-12T00:12:51.078Z,0.00
2023-03-12T00:13:51.109Z,0.00
2023-03-12T00:14:51.081Z,0.00
2023-03-12T00:15:51.112Z,0.00
2023-03-12T00:16:51.035Z,0.00
2023-03-12T00:17:51.048Z,0.00
2023-03-12T00:18:51.047Z,0.00
2023-03-12T00:19:51.038Z,0.00
2023-03-12T00:20:51.010Z,0.00
2023-03-12T00:21:51.000Z,0.00
2023-03-12T00:22:50.983Z,0.00
2023-03-12T00:23:51.004Z,0.00
2023-03-12T00:24:50.953Z,0.00
2023-03-12T00:25:50.954Z,0.00
2023-03-12T00:26:50.961Z,0.00
2023-03-12T00:27:51.206Z,0.00
2023-03-12T00:28:50.923Z,0.00
2023-03-12T00:29:50.923Z,0.00
2023-03-12T00:30:50.884Z,0.00
2023-03-12T00:31:50.944Z,0.00
2023-03-12T00:32:50.969Z,0.00
2023-03-12T00:33:50.914Z,0.00
2023-03-12T00:34:50.857Z,0.00
2023-03-12T00:35:50.886Z,0.00
2023-03-12T00:36:50.821Z,0.00
2023-03-12T00:37:50.837Z,0.00
2023-03-12T00:38:50.798Z,0.00
2023-03-12T00:39:50.814Z,0.00
2023-03-12T00:40:50.781Z,0.00
2023-03-12T00:41:50.780Z,0.00
2023-03-12T00:42:50.749Z,0.00
2023-03-12T00:43:50.775Z,0.00
2023-03-12T00:44:50.730Z,0.00
2023-03-12T00:45:50.748Z,0.00
2023-03-12T00:46:50.791Z,0.00
2023-03-12T00:47:50.708Z,0.00
2023-03-12T00:48:50.705Z,0.00
2023-03-12T00:49:50.696Z,0.00
2023-03-12T00:50:50.684Z,0.00
2023-03-12T00:51:50.683Z,0.00
2023-03-12T00:52:50.663Z,0.00
2023-03-12T00:53:50.661Z,0.00
2023-03-12T00:54:50.631Z,0.00
2023-03-12T00:55:50.640Z,0.00
2023-03-12T00:56:50.626Z,0.00
2023-03-12T00:57:50.616Z,0.00
2023-03-12T00:58:50.595Z,0.00
2023-03-12T00:59:50.600Z,0.00
2023-03-12T01:00:50.599Z,0.00
2023-03-12T01:01:50.588Z,0.00
2023-03-12T01:02:50.547Z,0.00
2023-03-12T01:03:50.606Z,0.00
2023-03-12T01:04:50.536Z,0.00
2023-03-12T01:05:50.539Z,0.00
2023-03-12T01:06:50.514Z,0.00
2023-03-12T01:07:50.518Z,0.00
2023-03-12T01:08:50.483Z,0.00
2023-03-12T01:09:50.511Z,0.00
2023-03-12T01:10:50.513Z,0.00
2023-03-12T01:11:50.468Z,0.00
2023-03-12T01:12:50.468Z,0.00
2023-03-12T01:13:50.444Z,0.00
2023-03-12T01:14:50.445Z,0.00
2023-03-12T01:15:50.533Z,0.00
2023-03-12T01:16:52.437Z,0.00
2023-03-12T01:17:50.398Z,0.00
2023-03-12T01:18:50.409Z,0.00
2023-03-12T01:19:50.373Z,0.00
2023-03-12T01:20:50.382Z,0.00
2023-03-12T01:21:50.379Z,0.00
2023-03-12T01:22:50.347Z,0.00
2023-03-12T01:23:50.335Z,0.00
2023-03-12T01:24:50.328Z,0.00
2023-03-12T01:25:50.323Z,0.00
2023-03-12T01:26:50.309Z,0.00
2023-03-12T01:27:50.300Z,0.00
2023-03-12T01:28:50.298Z,0.00
2023-03-12T01:29:50.270Z,0.00
2023-03-12T01:30:50.264Z,0.00
2023-03-12T01:31:50.348Z,0.00
2023-03-12T01:32:50.334Z,0.00
2023-03-12T01:33:50.252Z,0.00
2023-03-12T01:34:50.226Z,0.00
2023-03-12T01:35:50.352Z,0.00
2023-03-12T01:36:50.208Z,0.00
2023-03-12T01:37:50.187Z,0.00
2023-03-12T01:38:50.188Z,0.00
2023-03-12T01:39:50.168Z,0.00
2023-03-12T01:40:50.183Z,0.00
2023-03-12T01:41:50.150Z,0.00
2023-03-12T01:42:50.152Z,0.00
2023-03-12T01:43:50.109Z,0.00
2023-03-12T01:44:50.131Z,0.00
2023-03-12T01:45:50.134Z,0.00
2023-03-12T01:46:50.101Z,0.00
2023-03-12T01:47:50.078Z,0.00
2023-03-12T01:48:50.077Z,0.00
2023-03-12T01:49:50.070Z,0.00
2023-03-12T01:50:50.138Z,0.00
2023-03-12T01:51:50.031Z,0.00
2023-03-12T01:52:50.037Z,0.00
2023-03-12T01:53:50.027Z,0.00
2023-03-12T01:54:50.047Z,0.00
2023-03-12T01:55:49.980Z,0.00
2023-03-12T01:56:50.013Z,0.00
2023-03-12T01:57:50.007Z,0.00
2023-03-12T01:58:49.974Z,0.00
2023-03-12T01:59:49.934Z,0.00
2023-03-12T02:00:50.849Z,0.00
2023-03-12T02:01:49.940Z,0.00
2023-03-12T02:02:49.929Z,0.00
2023-03-12T02:03:49.972Z,0.00
2023-03-12T02:04:49.907Z,0.00
2023-03-12T02:05:49.871Z,0.00
2023-03-12T02:06:49.874Z,0.00
2023-03-12T02:07:49.880Z,0.00
2023-03-12T02:08:49.857Z,0.00
2023-03-12T02:09:49.839Z,0.00
2023-03-12T02:10:49.848Z,0.00
2023-03-12T02:11:49.817Z,0.00
2023-03-12T02:12:49.818Z,0.00
2023-03-12T02:13:49.815Z,0.00
2023-03-12T02:14:49.796Z,0.00
2023-03-12T02:15:49.790Z,0.00
2023-03-12T02:16:49.838Z,0.00
2023-03-12T02:17:49.782Z,0.00
2023-03-12T02:18:49.781Z,0.00
2023-03-12T02:19:49.742Z,0.00
2023-03-12T02:20:49.868Z,0.00
2023-03-12T02:21:49.725Z,0.00
2023-03-12T02:22:49.717Z,0.00
2023-03-12T02:23:49.686Z,0.00
2023-03-12T02:24:53.383Z,0.00
2023-03-12T02:25:49.664Z,0.00
2023-03-12T02:26:49.696Z,0.00
2023-03-12T02:27:49.650Z,0.00
2023-03-12T02:28:55.661Z,0.00
2023-03-12T07:00:54.482Z,466.00
2023-03-12T07:01:54.796Z,439.00
2023-03-12T07:02:55.264Z,449.00
2023-03-12T07:03:54.738Z,471.00
2023-03-12T07:04:54.779Z,479.00
2023-03-12T07:05:54.734Z,538.00
2023-03-12T07:06:54.696Z,631.00
2023-03-12T07:07:54.704Z,690.00
2023-03-12T07:08:54.696Z,762.00
2023-03-12T07:09:54.680Z,703.00
2023-03-12T07:10:54.652Z,599.00
2023-03-12T07:11:54.656Z,569.00
2023-03-12T07:12:54.652Z,581.00
2023-03-12T07:13:54.654Z,629.00
2023-03-12T07:14:54.636Z,650.00
2023-03-12T07:15:54.672Z,634.00
2023-03-12T07:16:54.606Z,638.00
2023-03-12T07:17:54.614Z,638.00
2023-03-12T07:18:54.591Z,645.00
2023-03-12T07:19:54.609Z,671.00
2023-03-12T07:20:54.607Z,709.00
2023-03-12T07:21:54.576Z,766.00
2023-03-12T07:22:54.570Z,864.00
2023-03-12T07:23:54.540Z,927.00
2023-03-12T07:24:54.522Z,982.00
2023-03-12T07:25:54.526Z,932.00
2023-03-12T07:26:54.490Z,845.00
2023-03-12T07:27:54.534Z,780.00
2023-03-12T07:28:54.528Z,696.00
2023-03-12T07:29:54.479Z,694.00
2023-03-12T07:30:54.458Z,717.00
2023-03-12T07:31:54.460Z,694.00
2023-03-12T07:32:54.463Z,713.00
2023-03-12T07:33:54.512Z,846.00
2023-03-12T07:34:54.426Z,1036.00
2023-03-12T07:35:54.569Z,1181.00
2023-03-12T07:36:54.561Z,986.00
2023-03-12T07:37:54.460Z,796.00
2023-03-12T07:38:54.370Z,720.00
2023-03-12T07:39:54.463Z,702.00
2023-03-12T07:40:54.394Z,648.00
2023-03-12T07:41:54.370Z,704.00
2023-03-12T07:42:54.327Z,760.00
2023-03-12T07:43:54.352Z,1005.00
2023-03-12T07:44:54.326Z,1083.00
2023-03-12T07:45:54.312Z,1353.00
2023-03-12T07:46:54.482Z,1456.00
2023-03-12T07:47:54.310Z,1492.00
2023-03-12T07:48:54.264Z,1359.00
2023-03-12T07:49:54.413Z,1337.00
2023-03-12T07:50:54.259Z,1039.00
2023-03-12T07:51:54.278Z,909.00
2023-03-12T07:52:54.226Z,888.00
2023-03-12T07:53:54.232Z,915.00
2023-03-12T07:54:54.205Z,762.00
2023-03-12T07:55:54.921Z,563.00
2023-03-12T07:56:54.393Z,513.00
2023-03-12T07:57:54.230Z,792.00
2023-03-12T07:58:54.371Z,848.00
2023-03-12T07:59:54.195Z,816.00
2023-03-12T08:00:54.188Z,692.00
2023-03-12T08:01:54.225Z,761.00
2023-03-12T08:02:54.896Z,787.00
2023-03-12T08:03:54.150Z,654.00
2023-03-12T08:04:54.164Z,575.00
2023-03-12T08:05:54.118Z,626.00
2023-03-12T08:06:54.248Z,619.00
2023-03-12T08:07:54.083Z,673.00
2023-03-12T08:08:54.117Z,576.00
2023-03-12T08:09:54.111Z,621.00
2023-03-12T08:10:54.024Z,638.00
2023-03-12T08:11:54.073Z,564.00
2023-03-12T08:12:54.099Z,533.00
2023-03-12T08:13:54.013Z,454.00
2023-03-12T08:14:54.037Z,405.00
2023-03-12T08:15:54.162Z,395.00
2023-03-12T08:16:53.971Z,385.00
2023-03-12T08:17:53.973Z,458.00
2023-03-12T08:18:53.959Z,500.00
2023-03-12T08:19:54.228Z,462.00
2023-03-12T08:20:53.934Z,472.00
2023-03-12T08:21:53.939Z,526.00
2023-03-12T08:22:53.911Z,517.00
2023-03-12T08:23:53.924Z,496.00
2023-03-12T08:24:53.893Z,568.00
2023-03-12T08:25:53.940Z,650.00
2023-03-12T08:26:53.899Z,779.00
2023-03-12T08:27:53.872Z,815.00
2023-03-12T08:28:53.844Z,917.00
2023-03-12T08:29:53.885Z,930.00
2023-03-12T08:30:53.835Z,1075.00
2023-03-12T08:32:04.117Z,1069.00
2023-03-12T08:32:53.927Z,1088.00
2023-03-12T08:33:53.804Z,987.00
2023-03-12T08:34:53.787Z,907.00
2023-03-12T08:35:53.839Z,801.00
2023-03-12T08:36:53.782Z,856.00
2023-03-12T08:37:53.772Z,905.00
2023-03-12T08:38:53.751Z,933.00
2023-03-12T08:39:53.746Z,1126.00
2023-03-12T08:40:53.720Z,964.00
2023-03-12T08:41:53.751Z,699.00
2023-03-12T08:42:53.695Z,759.00
2023-03-12T08:43:53.705Z,656.00
2023-03-12T08:44:53.679Z,851.00
2023-03-12T08:45:53.752Z,933.00
2023-03-12T08:46:53.674Z,745.00
2023-03-12T08:47:53.691Z,613.00
2023-03-12T08:48:53.648Z,563.00
2023-03-12T08:49:53.637Z,775.00
2023-03-12T08:50:53.630Z,833.00
2023-03-12T08:51:53.615Z,835.00
2023-03-12T08:52:53.653Z,776.00
2023-03-12T08:53:53.607Z,895.00
2023-03-12T08:54:53.577Z,722.00
2023-03-12T08:55:53.588Z,971.00
2023-03-12T08:56:53.598Z,1053.00
2023-03-12T08:57:53.559Z,768.00
2023-03-12T08:58:53.558Z,891.00
2023-03-12T08:59:53.543Z,744.00
2023-03-12T09:00:54.297Z,799.00
2023-03-12T09:01:53.514Z,970.00
2023-03-12T09:02:53.528Z,1071.00
2023-03-12T09:03:53.512Z,1082.00
2023-03-12T09:04:53.507Z,964.00
2023-03-12T09:05:53.504Z,942.00
2023-03-12T09:06:53.456Z,1102.00
2023-03-12T09:07:53.478Z,1146.00
2023-03-12T09:08:53.451Z,951.00
2023-03-12T09:09:53.463Z,953.00
2023-03-12T09:10:53.418Z,1283.00
2023-03-12T09:11:53.408Z,1080.00
2023-03-12T09:12:53.413Z,798.00
2023-03-12T09:14:46.267Z,1087.00
2023-03-12T09:15:04.548Z,1158.00
2023-03-12T09:15:53.386Z,1110.00
2023-03-12T09:16:53.418Z,939.00
2023-03-12T09:17:53.361Z,1129.00
2023-03-12T09:18:53.369Z,917.00
2023-03-12T09:19:53.385Z,885.00
2023-03-12T09:20:53.315Z,830.00
2023-03-12T09:21:53.329Z,884.00
2023-03-12T09:22:53.314Z,658.00
2023-03-12T09:23:53.300Z,930.00
2023-03-12T09:24:53.277Z,735.00
2023-03-12T09:25:53.288Z,770.00
2023-03-12T09:26:53.277Z,869.00
2023-03-12T09:27:53.269Z,656.00
2023-03-12T09:28:53.261Z,814.00
2023-03-12T09:30:00.028Z,729.00
2023-03-12T09:30:53.261Z,596.00
2023-03-12T09:31:53.250Z,893.00
2023-03-12T09:32:53.243Z,1224.00
2023-03-12T09:33:53.204Z,858.00
2023-03-12T09:34:53.167Z,839.00
2023-03-12T09:35:53.231Z,1343.00
2023-03-12T09:36:53.157Z,1418.00
2023-03-12T09:37:53.149Z,1197.00
2023-03-12T09:38:53.156Z,1339.00
2023-03-12T09:39:53.164Z,1242.00
2023-03-12T09:40:53.131Z,1330.00
2023-03-12T09:41:53.132Z,2008.00
2023-03-12T09:42:53.084Z,1626.00
2023-03-12T09:43:53.086Z,1167.00
2023-03-12T09:44:53.049Z,1076.00
2023-03-12T09:45:53.117Z,1264.00
2023-03-12T09:46:53.036Z,1325.00
2023-03-12T09:47:53.047Z,1342.00
2023-03-12T09:48:53.020Z,827.00
2023-03-12T09:49:53.029Z,1637.00
2023-03-12T09:50:52.988Z,1769.00
2023-03-12T09:51:53.062Z,1706.00
2023-03-12T09:52:52.999Z,1510.00
2023-03-12T09:53:53.004Z,1453.00
2023-03-12T09:54:52.979Z,1249.00
2023-03-12T09:55:52.999Z,1373.00
2023-03-12T09:56:52.953Z,1475.00
2023-03-12T09:57:52.977Z,1251.00
2023-03-12T09:58:52.920Z,1115.00
2023-03-12T09:59:52.962Z,1245.00
2023-03-12T10:00:52.891Z,1214.00
2023-03-12T10:01:52.895Z,1300.00
2023-03-12T10:02:53.076Z,1281.00
2023-03-12T10:03:52.893Z,1487.00
2023-03-12T10:04:59.815Z,1323.00
2023-03-12T10:05:52.919Z,1130.00
2023-03-12T10:06:52.852Z,1206.00
2023-03-12T10:07:52.912Z,1140.00
2023-03-12T10:08:52.825Z,992.00
2023-03-12T10:09:52.853Z,974.00
2023-03-12T10:10:52.793Z,1079.00
2023-03-12T10:11:52.821Z,1141.00
2023-03-12T10:12:52.807Z,1107.00
2023-03-12T10:13:52.788Z,993.00
2023-03-12T10:14:52.784Z,1189.00
2023-03-12T10:15:52.860Z,1243.00
2023-03-12T10:16:52.766Z,1096.00
2023-03-12T10:17:52.889Z,1444.00
2023-03-12T10:18:53.047Z,1532.00
2023-03-12T10:19:52.720Z,1593.00
2023-03-12T10:20:52.732Z,1823.00
2023-03-12T10:21:52.695Z,1604.00
2023-03-12T10:22:52.716Z,1405.00
2023-03-12T10:23:52.684Z,1385.00
2023-03-12T10:24:52.663Z,1180.00
2023-03-12T10:25:52.670Z,1276.00
2023-03-12T10:26:52.647Z,1559.00
2023-03-12T10:27:52.646Z,1355.00
2023-03-12T10:28:52.610Z,1284.00
2023-03-12T10:29:52.623Z,1242.00
2023-03-12T10:30:52.619Z,1412.00
2023-03-12T10:31:52.598Z,1401.00
2023-03-12T10:32:52.616Z,1395.00
2023-03-12T10:33:52.569Z,1346.00
2023-03-12T10:34:52.538Z,1495.00
2023-03-12T10:35:52.649Z,1423.00
2023-03-12T10:36:52.530Z,1280.00
2023-03-12T10:37:52.580Z,1255.00
2023-03-12T10:38:52.508Z,1086.00
2023-03-12T10:39:52.518Z,1462.00
2023-03-12T10:40:52.494Z,1652.00
2023-03-12T10:41:52.487Z,996.00
2023-03-12T10:42:52.461Z,1564.00
2023-03-12T10:43:52.492Z,1387.00
2023-03-12T10:44:52.444Z,1494.00
2023-03-12T10:45:52.443Z,1865.00
2023-03-12T10:46:52.419Z,1524.00
2023-03-12T10:47:52.453Z,1877.00
2023-03-12T10:48:52.412Z,1334.00
2023-03-12T10:49:52.428Z,2098.00
2023-03-12T10:50:52.410Z,1556.00
2023-03-12T10:51:52.381Z,1607.00
2023-03-12T10:52:52.389Z,1590.00
2023-03-12T10:53:52.368Z,1396.00
2023-03-12T10:54:52.364Z,1707.00
2023-03-12T10:55:52.366Z,1589.00
2023-03-12T10:56:52.331Z,1636.00
2023-03-12T10:57:52.335Z,1942.00
2023-03-12T10:58:52.362Z,1895.00
2023-03-12T10:59:52.311Z,1512.00
2023-03-12T11:00:52.329Z,1738.00
2023-03-12T11:01:52.337Z,1883.00
2023-03-12T11:02:52.286Z,1943.00
2023-03-12T11:03:52.267Z,2049.00
2023-03-12T11:04:52.262Z,2043.00
2023-03-12T11:05:52.294Z,2094.00
2023-03-12T11:06:52.241Z,2023.00
2023-03-12T11:07:52.222Z,1631.00
2023-03-12T11:08:55.025Z,1383.00
2023-03-12T11:09:52.215Z,1500.00
2023-03-12T11:10:52.248Z,1390.00
2023-03-12T11:11:52.278Z,1637.00
2023-03-12T11:12:52.212Z,1287.00
2023-03-12T11:13:52.149Z,1071.00
2023-03-12T11:14:52.179Z,1433.00
2023-03-12T11:15:52.250Z,1420.00
2023-03-12T11:16:52.161Z,1180.00
2023-03-12T11:17:52.118Z,998.00
2023-03-12T11:18:52.141Z,1794.00
2023-03-12T11:19:52.094Z,1509.00
2023-03-12T11:20:52.080Z,1449.00
2023-03-12T11:21:52.075Z,1602.00
2023-03-12T11:22:52.076Z,1348.00
2023-03-12T11:23:52.079Z,1036.00
2023-03-12T11:24:52.041Z,1213.00
2023-03-12T11:25:52.019Z,1107.00
2023-03-12T11:26:52.032Z,1189.00
2023-03-12T11:27:52.006Z,1446.00
2023-03-12T11:28:52.004Z,1086.00
2023-03-12T11:29:52.107Z,1534.00
2023-03-12T11:30:52.065Z,1638.00
2023-03-12T11:31:51.985Z,2102.00
2023-03-12T11:32:52.017Z,2462.00
2023-03-12T11:33:51.968Z,1495.00
2023-03-12T11:34:51.939Z,2025.00
2023-03-12T11:35:51.983Z,1430.00
2023-03-12T11:36:51.988Z,1641.00
2023-03-12T11:37:51.897Z,820.00
2023-03-12T11:38:51.888Z,2184.00
2023-03-12T11:39:51.885Z,2292.00
2023-03-12T11:40:51.974Z,2513.00
2023-03-12T11:41:51.864Z,2547.00
2023-03-12T11:42:52.151Z,1792.00
2023-03-12T11:43:51.845Z,1627.00
2023-03-12T11:44:51.855Z,2072.00
2023-03-12T11:45:51.831Z,2928.00
2023-03-12T11:46:51.855Z,2254.00
2023-03-12T11:47:51.897Z,2058.00
2023-03-12T11:48:51.837Z,1367.00
2023-03-12T11:49:51.792Z,1365.00
2023-03-12T11:50:51.815Z,1557.00
2023-03-12T11:51:51.782Z,2369.00
2023-03-12T11:52:51.782Z,2120.00
2023-03-12T11:53:51.742Z,1597.00
2023-03-12T11:54:51.744Z,2820.00
2023-03-12T11:55:51.725Z,2783.00
2023-03-12T11:56:51.717Z,2648.00
2023-03-12T11:57:51.711Z,2566.00
2023-03-12T11:58:51.706Z,2727.00
2023-03-12T11:59:51.681Z,1920.00
2023-03-12T12:00:51.806Z,2358.00
2023-03-12T12:01:51.736Z,2386.00
2023-03-12T12:02:51.807Z,1920.00
2023-03-12T12:03:51.622Z,3140.00
2023-03-12T12:04:51.661Z,2383.00
2023-03-12T12:05:51.639Z,1790.00
2023-03-12T12:06:51.620Z,2856.00
2023-03-12T12:07:51.598Z,2750.00
2023-03-12T12:08:51.643Z,2659.00
2023-03-12T12:09:51.608Z,2594.00
2023-03-12T12:10:51.599Z,2701.00
2023-03-12T12:11:51.581Z,2386.00
2023-03-12T12:12:51.566Z,2124.00
2023-03-12T12:13:51.538Z,3518.00
2023-03-12T12:14:51.554Z,3195.00
2023-03-12T12:15:51.509Z,2874.00
2023-03-12T12:16:51.585Z,3140.00
2023-03-12T12:17:51.481Z,3208.00
2023-03-12T12:18:51.478Z,3246.00
2023-03-12T12:19:51.468Z,3208.00
2023-03-12T12:20:51.485Z,2916.00
2023-03-12T12:21:51.430Z,3530.00
2023-03-12T12:22:51.443Z,3225.00
2023-03-12T12:23:51.431Z,2722.00
2023-03-12T12:24:51.441Z,2826.00
2023-03-12T12:25:51.456Z,2698.00
2023-03-12T12:26:51.401Z,2727.00
2023-03-12T12:27:51.516Z,3833.00
2023-03-12T12:28:51.463Z,3306.00
2023-03-12T12:29:51.374Z,4170.00
2023-03-12T12:30:51.384Z,3725.00
2023-03-12T12:31:51.439Z,4304.00
2023-03-12T12:32:51.398Z,4385.00
2023-03-12T12:33:51.300Z,4438.00
2023-03-12T12:34:51.308Z,4617.00
2023-03-12T12:35:51.318Z,3444.00
2023-03-12T12:36:51.318Z,3985.00
2023-03-12T12:37:51.346Z,3819.00
2023-03-12T12:38:51.296Z,3659.00
2023-03-12T12:39:51.240Z,4885.00
2023-03-12T12:40:51.246Z,3632.00
2023-03-12T12:41:51.223Z,3169.00
2023-03-12T12:42:51.231Z,3461.00
2023-03-12T12:43:51.200Z,3209.00
2023-03-12T12:44:51.217Z,2480.00
2023-03-12T12:45:51.190Z,3338.00
2023-03-12T12:46:51.193Z,3119.00
2023-03-12T12:47:51.154Z,3232.00
2023-03-12T12:48:51.168Z,3815.00
2023-03-12T12:49:51.140Z,3479.00
2023-03-12T12:50:51.167Z,4391.00
2023-03-12T12:51:51.115Z,3974.00
2023-03-12T12:52:51.177Z,4543.00
2023-03-12T12:53:51.128Z,3572.00
2023-03-12T12:54:51.126Z,3357.00
2023-03-12T12:55:51.107Z,3202.00
2023-03-12T12:56:51.083Z,3693.00
2023-03-12T12:57:51.060Z,3990.00
2023-03-12T12:58:51.116Z,3814.00
2023-03-12T12:59:51.048Z,3104.00
2023-03-12T13:00:51.159Z,3880.00
2023-03-12T13:01:51.005Z,3304.00
2023-03-12T13:02:51.253Z,3427.00
2023-03-12T13:03:51.007Z,3790.00
2023-03-12T13:04:51.010Z,3475.00
2023-03-12T13:05:50.972Z,3489.00
2023-03-12T13:06:50.987Z,3421.00
2023-03-12T13:07:50.985Z,3577.00
2023-03-12T13:08:50.991Z,3156.00
2023-03-12T13:09:51.119Z,3214.00
2023-03-12T13:10:57.860Z,2820.00
2023-03-12T13:11:51.066Z,2314.00
2023-03-12T13:12:51.096Z,2972.00
2023-03-12T13:13:51.158Z,2615.00
2023-03-12T13:14:50.919Z,2273.00
2023-03-12T13:15:51.061Z,3149.00
2023-03-12T13:16:50.883Z,4284.00
2023-03-12T13:17:50.861Z,3204.00
2023-03-12T13:18:50.864Z,3917.00
2023-03-12T13:20:00.960Z,3204.00
2023-03-12T13:20:50.847Z,3160.00
2023-03-12T13:21:50.854Z,3262.00
2023-03-12T13:22:50.818Z,4854.00
2023-03-12T13:23:50.803Z,4206.00
2023-03-12T13:24:50.812Z,4368.00
2023-03-12T13:25:50.761Z,3380.00
2023-03-12T13:26:50.769Z,3687.00
2023-03-12T13:27:50.770Z,3646.00
2023-03-12T13:28:51.831Z,4034.00
2023-03-12T13:29:50.836Z,2996.00
2023-03-12T13:30:50.823Z,3430.00
2023-03-12T13:31:50.694Z,3908.00
2023-03-12T13:32:50.766Z,3775.00
2023-03-12T13:33:50.688Z,3793.00
2023-03-12T13:34:50.760Z,3463.00
2023-03-12T13:35:50.801Z,3686.00
2023-03-12T13:36:50.661Z,2643.00
2023-03-12T13:37:50.643Z,2356.00
2023-03-12T13:38:50.637Z,2019.00
2023-03-12T13:39:50.647Z,2655.00
2023-03-12T13:40:50.650Z,2898.00
2023-03-12T13:41:50.625Z,2596.00
2023-03-12T13:42:50.607Z,3179.00
2023-03-12T13:43:50.584Z,2870.00
2023-03-12T13:44:50.583Z,2615.00
2023-03-12T13:45:50.599Z,2239.00
2023-03-12T13:46:50.573Z,2610.00
2023-03-12T13:47:50.562Z,2816.00
2023-03-12T13:48:50.538Z,2136.00
2023-03-12T13:49:50.643Z,2780.00
2023-03-12T13:50:50.508Z,2116.00
2023-03-12T13:51:50.505Z,2105.00
2023-03-12T13:52:50.513Z,2012.00
2023-03-12T13:53:50.499Z,1776.00
2023-03-12T13:54:50.518Z,1558.00
2023-03-12T13:55:50.451Z,1781.00
2023-03-12T13:56:50.452Z,1590.00
2023-03-12T13:57:50.459Z,1923.00
2023-03-12T13:58:50.430Z,1254.00
2023-03-12T13:59:50.453Z,1821.00
2023-03-12T14:00:50.413Z,1740.00
2023-03-12T14:01:50.402Z,1987.00
2023-03-12T14:02:50.394Z,1809.00
2023-03-12T14:03:50.369Z,1916.00
2023-03-12T14:04:50.469Z,1406.00
2023-03-12T14:05:50.343Z,1573.00
2023-03-12T14:06:50.359Z,2306.00
2023-03-12T14:07:50.319Z,2020.00
2023-03-12T14:08:50.329Z,1914.00
2023-03-12T14:09:50.315Z,1391.00
2023-03-12T14:10:50.341Z,1997.00
2023-03-12T14:11:50.290Z,2065.00
2023-03-12T14:12:50.294Z,1666.00
2023-03-12T14:13:50.261Z,1422.00
2023-03-12T14:14:50.254Z,1365.00
2023-03-12T14:15:50.284Z,1523.00
2023-03-12T14:16:50.238Z,945.00
2023-03-12T14:17:50.218Z,1012.00
2023-03-12T14:18:50.226Z,2015.00
2023-03-12T14:19:50.210Z,1797.00
2023-03-12T14:20:50.223Z,1641.00
2023-03-12T14:21:50.173Z,1065.00
2023-03-12T14:22:50.205Z,1307.00
2023-03-12T14:23:50.156Z,1063.00
2023-03-12T14:24:50.164Z,909.00
2023-03-12T14:25:50.143Z,902.00
2023-03-12T14:26:50.157Z,1182.00
2023-03-12T14:27:50.103Z,1108.00
2023-03-12T14:28:50.115Z,971.00
2023-03-12T14:29:50.094Z,905.00
2023-03-12T14:30:50.178Z,845.00
2023-03-12T14:31:50.112Z,1236.00
2023-03-12T14:32:50.140Z,999.00
2023-03-12T14:33:50.046Z,877.00
2023-03-12T14:34:50.059Z,781.00
2023-03-12T14:35:51.300Z,821.00
2023-03-12T14:36:50.248Z,805.00
2023-03-12T14:37:50.161Z,677.00
2023-03-12T14:38:50.091Z,660.00
2023-03-12T14:39:51.007Z,969.00
2023-03-12T14:40:49.988Z,729.00
2023-03-12T14:41:50.011Z,679.00
2023-03-12T14:42:50.085Z,642.00
2023-03-12T14:43:49.989Z,999.00
2023-03-12T14:44:50.055Z,740.00
2023-03-12T14:45:49.941Z,809.00
2023-03-12T14:46:50.008Z,706.00
2023-03-12T14:47:49.914Z,573.00
2023-03-12T14:48:49.908Z,505.00
2023-03-12T14:49:49.887Z,571.00
2023-03-12T14:50:49.874Z,639.00
2023-03-12T14:51:49.857Z,761.00
2023-03-12T14:52:49.893Z,886.00
2023-03-12T14:53:49.839Z,806.00
2023-03-12T14:54:49.840Z,761.00
2023-03-12T14:55:49.841Z,808.00
2023-03-12T14:56:49.825Z,806.00
2023-03-12T14:57:49.792Z,802.00
2023-03-12T14:58:49.817Z,722.00
2023-03-12T14:59:49.780Z,577.00
2023-03-12T15:00:49.795Z,560.00
2023-03-12T15:01:49.943Z,530.00
2023-03-12T15:02:49.777Z,343.00
2023-03-12T15:03:49.747Z,439.00
2023-03-12T15:04:49.795Z,337.00
2023-03-12T15:09:23.899Z,829.00
2023-03-12T15:10:24.880Z,803.00
2023-03-12T15:11:24.839Z,835.00
2023-03-12T15:12:24.848Z,782.00
2023-03-12T15:13:24.816Z,999.00
2023-03-12T15:14:24.846Z,944.00
2023-03-12T15:15:24.805Z,954.00
2023-03-12T15:16:24.834Z,745.00
2023-03-12T15:17:24.777Z,866.00
2023-03-12T15:18:24.768Z,787.00
2023-03-12T15:19:25.103Z,1032.00
2023-03-12T15:20:24.770Z,1227.00
2023-03-12T15:21:24.752Z,1257.00
2023-03-12T15:22:24.822Z,1128.00
2023-03-12T15:23:24.833Z,998.00
2023-03-12T15:24:24.713Z,1075.00
2023-03-12T15:25:24.715Z,1148.00
2023-03-12T15:26:24.709Z,1061.00
2023-03-12T15:27:24.676Z,1193.00
2023-03-12T15:28:24.680Z,1294.00
2023-03-12T15:29:24.654Z,1391.00
2023-03-12T15:30:24.684Z,1368.00
2023-03-12T15:31:24.737Z,1484.00
2023-03-12T15:32:24.836Z,1444.00
2023-03-12T15:33:24.605Z,1438.00
2023-03-12T15:34:24.637Z,1381.00
2023-03-12T15:35:24.806Z,1415.00
2023-03-12T15:36:24.702Z,1399.00
2023-03-12T15:37:24.581Z,1275.00
2023-03-12T15:38:24.609Z,1032.00
2023-03-12T15:39:24.621Z,1181.00
2023-03-12T15:40:24.552Z,940.00
2023-03-12T15:41:24.528Z,608.00
2023-03-12T15:42:24.672Z,505.00
2023-03-12T15:43:24.517Z,398.00
2023-03-12T15:44:24.512Z,441.00
2023-03-12T15:45:24.531Z,642.00
2023-03-12T15:46:24.657Z,960.00
2023-03-12T15:47:24.449Z,775.00
2023-03-12T15:48:24.482Z,512.00
2023-03-12T15:49:24.444Z,563.00
2023-03-12T15:50:24.433Z,421.00
2023-03-12T15:51:24.419Z,480.00
2023-03-12T15:52:24.406Z,354.00
2023-03-12T15:53:24.391Z,396.00
2023-03-12T15:54:24.416Z,434.00
2023-03-12T15:55:26.952Z,315.00
2023-03-12T15:56:24.396Z,177.00
2023-03-12T15:57:24.359Z,165.00
2023-03-12T15:58:24.347Z,113.00
2023-03-12T15:59:24.347Z,466.00
2023-03-12T16:00:24.355Z,285.00
2023-03-12T16:01:24.393Z,255.00
2023-03-12T16:02:24.394Z,470.00
2023-03-12T16:03:24.275Z,833.00
2023-03-12T16:04:24.286Z,822.00
2023-03-12T16:05:24.307Z,732.00
2023-03-12T16:06:24.280Z,710.00
2023-03-12T16:07:24.261Z,785.00
2023-03-12T16:08:24.254Z,761.00
2023-03-12T16:09:24.242Z,756.00
2023-03-12T16:10:24.225Z,722.00
2023-03-12T16:11:24.214Z,682.00
2023-03-12T16:12:24.262Z,721.00
2023-03-12T16:13:24.167Z,734.00
2023-03-12T16:14:24.178Z,687.00
2023-03-12T16:15:24.160Z,705.00
2023-03-12T16:16:24.185Z,564.00
2023-03-12T16:17:24.122Z,555.00
2023-03-12T16:18:24.160Z,566.00
2023-03-12T16:19:24.167Z,548.00
2023-03-12T16:20:24.134Z,622.00
2023-03-12T16:21:24.084Z,539.00
2023-03-12T16:22:24.102Z,456.00
2023-03-12T16:23:24.093Z,422.00
2023-03-12T16:24:24.068Z,287.00
2023-03-12T16:25:24.056Z,312.00
2023-03-12T16:26:24.040Z,206.00
2023-03-12T16:27:32.575Z,256.00
2023-03-12T16:28:24.032Z,252.00
2023-03-12T16:29:24.017Z,263.00
2023-03-12T16:30:24.021Z,199.00
2023-03-12T16:31:24.001Z,137.00
2023-03-12T16:32:24.049Z,220.00
2023-03-12T16:33:23.975Z,121.00
2023-03-12T16:34:23.998Z,178.00
2023-03-12T16:35:24.020Z,143.00
2023-03-12T16:36:23.946Z,196.00
2023-03-12T16:37:23.920Z,194.00
2023-03-12T16:38:23.926Z,115.00
2023-03-12T16:39:23.909Z,224.00
2023-03-12T16:40:33.450Z,138.00
2023-03-12T16:41:23.870Z,69.00
2023-03-12T16:42:23.874Z,89.00
2023-03-12T16:43:23.884Z,84.00
2023-03-12T16:44:23.863Z,91.00
2023-03-12T16:45:23.828Z,129.00
2023-03-12T16:46:23.866Z,129.00
2023-03-12T16:47:23.813Z,151.00
2023-03-12T16:48:23.805Z,185.00
2023-03-12T16:49:23.789Z,173.00
2023-03-12T16:50:23.884Z,225.00
2023-03-12T16:51:23.769Z,293.00
2023-03-12T16:52:23.768Z,319.00
2023-03-12T16:53:23.755Z,302.00
2023-03-12T16:54:23.738Z,255.00
2023-03-12T16:55:23.785Z,231.00
2023-03-12T16:56:23.750Z,214.00
2023-03-12T16:57:23.719Z,186.00
2023-03-12T16:58:23.703Z,161.00
2023-03-12T16:59:23.697Z,182.00
2023-03-12T17:00:23.721Z,189.00
2023-03-12T17:01:23.674Z,184.00
2023-03-12T17:02:23.701Z,180.00